sensor_id;sensor_type;location;lat;lon;timestamp;P1;durP1;ratioP1;P2;durP2;ratioP2
76403;SDS011;65232;48.358;2.122;2022-12-29T00:00:15;2.83;;;1.40;;
76403;SDS011;65232;48.358;2.122;2022-12-29T00:00:40;5.43;;;1.27;;
76403;SDS011;65232;48.358;2.122;2022-12-29T00:01:06;4.18;;;1.63;;
76403;SDS011;65232;48.358;2.122;2022-12-29T00:01:32;3.88;;;1.33;;
76403;SDS011;65232;48.358;2.122;2022-12-29T00:01:58;3.90;;;1.70;;
76403;SDS011;65232;48.358;2.122;2022-12-29T00:02:23;3.83;;;1.65;;
76403;SDS011;65232;48.358;2.122;2022-12-29T00:02:49;5.50;;;1.52;;
76403;SDS011;65232;48.358;2.122;2022-12-29T00:03:14;4.10;;;1.67;;
76403;SDS011;65232;48.358;2.122;2022-12-29T00:03:40;3.00;;;1.38;;
76403;SDS011;65232;48.358;2.122;2022-12-29T00:04:05;4.53;;;1.85;;
76403;SDS011;65232;48.358;2.122;2022-12-29T00:04:31;3.08;;;1.33;;
76403;SDS011;65232;48.358;2.122;2022-12-29T00:04:57;3.60;;;1.52;;
76403;SDS011;65232;48.358;2.122;2022-12-29T00:05:23;3.97;;;1.75;;
76403;SDS011;65232;48.358;2.122;2022-12-29T00:05:54;5.53;;;1.52;;
76403;SDS011;65232;48.358;2.122;2022-12-29T00:06:22;6.68;;;1.70;;
76403;SDS011;65232;48.358;2.122;2022-12-29T00:06:48;4.72;;;1.50;;
76403;SDS011;65232;48.358;2.122;2022-12-29T00:07:13;4.05;;;1.42;;
76403;SDS011;65232;48.358;2.122;2022-12-29T00:07:39;5.15;;;1.50;;
76403;SDS011;65232;48.358;2.122;2022-12-29T00:08:04;4.57;;;1.45;;
76403;SDS011;65232;48.358;2.122;2022-12-29T00:08:29;5.03;;;1.67;;
76403;SDS011;65232;48.358;2.122;2022-12-29T00:09:07;4.43;;;1.20;;
76403;SDS011;65232;48.358;2.122;2022-12-29T00:09:33;3.97;;;1.23;;
76403;SDS011;65232;48.358;2.122;2022-12-29T00:09:59;3.75;;;1.10;;
76403;SDS011;65232;48.358;2.122;2022-12-29T00:10:24;4.07;;;1.27;;
76403;SDS011;65232;48.358;2.122;2022-12-29T00:10:50;4.63;;;1.38;;
76403;SDS011;65232;48.358;2.122;2022-12-29T00:11:16;2.90;;;1.35;;
76403;SDS011;65232;48.358;2.122;2022-12-29T00:11:44;7.25;;;1.40;;
76403;SDS011;65232;48.358;2.122;2022-12-29T00:12:10;2.35;;;1.05;;
76403;SDS011;65232;48.358;2.122;2022-12-29T00:12:35;7.35;;;1.63;;
76403;SDS011;65232;48.358;2.122;2022-12-29T00:13:19;4.10;;;1.33;;
76403;SDS011;65232;48.358;2.122;2022-12-29T00:14:03;2.33;;;1.27;;
76403;SDS011;65232;48.358;2.122;2022-12-29T00:14:48;4.97;;;1.60;;
76403;SDS011;65232;48.358;2.122;2022-12-29T00:15:32;2.63;;;1.05;;
76403;SDS011;65232;48.358;2.122;2022-12-29T00:16:04;4.28;;;1.48;;
76403;SDS011;65232;48.358;2.122;2022-12-29T00:16:33;4.40;;;1.60;;
76403;SDS011;65232;48.358;2.122;2022-12-29T00:16:59;3.78;;;1.70;;
76403;SDS011;65232;48.358;2.122;2022-12-29T00:17:25;4.88;;;2.47;;
76403;SDS011;65232;48.358;2.122;2022-12-29T00:17:51;3.45;;;1.20;;
76403;SDS011;65232;48.358;2.122;2022-12-29T00:18:16;5.30;;;1.40;;
76403;SDS011;65232;48.358;2.122;2022-12-29T00:18:42;2.42;;;1.30;;
76403;SDS011;65232;48.358;2.122;2022-12-29T00:19:07;3.15;;;1.20;;
76403;SDS011;65232;48.358;2.122;2022-12-29T00:19:53;5.28;;;1.52;;
76403;SDS011;65232;48.358;2.122;2022-12-29T00:20:37;2.78;;;1.63;;
76403;SDS011;65232;48.358;2.122;2022-12-29T00:21:22;3.83;;;1.05;;
76403;SDS011;65232;48.358;2.122;2022-12-29T00:22:08;3.20;;;1.30;;
76403;SDS011;65232;48.358;2.122;2022-12-29T00:22:54;3.45;;;1.42;;
76403;SDS011;65232;48.358;2.122;2022-12-29T00:23:38;3.60;;;1.10;;
76403;SDS011;65232;48.358;2.122;2022-12-29T00:24:21;6.40;;;1.10;;
76403;SDS011;65232;48.358;2.122;2022-12-29T00:25:07;2.45;;;0.90;;
76403;SDS011;65232;48.358;2.122;2022-12-29T00:25:52;8.30;;;1.38;;
76403;SDS011;65232;48.358;2.122;2022-12-29T00:26:37;2.28;;;0.90;;
76403;SDS011;65232;48.358;2.122;2022-12-29T00:27:21;2.63;;;1.02;;
76403;SDS011;65232;48.358;2.122;2022-12-29T00:28:09;3.22;;;1.20;;
76403;SDS011;65232;48.358;2.122;2022-12-29T00:28:53;3.72;;;0.90;;
76403;SDS011;65232;48.358;2.122;2022-12-29T00:29:37;2.67;;;1.10;;
76403;SDS011;65232;48.358;2.122;2022-12-29T00:30:21;3.47;;;1.20;;
76403;SDS011;65232;48.358;2.122;2022-12-29T00:31:07;3.75;;;1.13;;
76403;SDS011;65232;48.358;2.122;2022-12-29T00:31:55;2.58;;;1.00;;
76403;SDS011;65232;48.358;2.122;2022-12-29T00:32:39;2.60;;;1.08;;
76403;SDS011;65232;48.358;2.122;2022-12-29T00:33:25;7.80;;;1.40;;
76403;SDS011;65232;48.358;2.122;2022-12-29T00:34:12;3.72;;;1.33;;
76403;SDS011;65232;48.358;2.122;2022-12-29T00:34:56;2.95;;;1.20;;
76403;SDS011;65232;48.358;2.122;2022-12-29T00:35:37;1.83;;;0.95;;
76403;SDS011;65232;48.358;2.122;2022-12-29T00:36:11;2.60;;;1.00;;
76403;SDS011;65232;48.358;2.122;2022-12-29T00:36:41;2.95;;;1.20;;
76403;SDS011;65232;48.358;2.122;2022-12-29T00:37:08;5.85;;;1.20;;
76403;SDS011;65232;48.358;2.122;2022-12-29T00:37:34;2.35;;;1.20;;
76403;SDS011;65232;48.358;2.122;2022-12-29T00:38:20;5.25;;;1.30;;
76403;SDS011;65232;48.358;2.122;2022-12-29T00:39:14;3.10;;;1.33;;
76403;SDS011;65232;48.358;2.122;2022-12-29T00:40:02;3.63;;;1.20;;
76403;SDS011;65232;48.358;2.122;2022-12-29T00:42:29;4.55;;;1.35;;
76403;SDS011;65232;48.358;2.122;2022-12-29T00:43:13;3.47;;;0.88;;
76403;SDS011;65232;48.358;2.122;2022-12-29T00:43:57;2.63;;;1.10;;
76403;SDS011;65232;48.358;2.122;2022-12-29T00:44:32;3.40;;;1.10;;
76403;SDS011;65232;48.358;2.122;2022-12-29T00:44:58;2.78;;;1.13;;
76403;SDS011;65232;48.358;2.122;2022-12-29T00:45:23;2.70;;;1.20;;
76403;SDS011;65232;48.358;2.122;2022-12-29T00:45:49;3.88;;;1.33;;
76403;SDS011;65232;48.358;2.122;2022-12-29T00:46:14;3.72;;;1.10;;
76403;SDS011;65232;48.358;2.122;2022-12-29T00:46:40;3.03;;;0.85;;
76403;SDS011;65232;48.358;2.122;2022-12-29T00:47:07;5.75;;;1.38;;
76403;SDS011;65232;48.358;2.122;2022-12-29T00:47:32;2.92;;;1.23;;
76403;SDS011;65232;48.358;2.122;2022-12-29T00:47:58;2.20;;;1.20;;
76403;SDS011;65232;48.358;2.122;2022-12-29T00:48:23;5.72;;;1.35;;
76403;SDS011;65232;48.358;2.122;2022-12-29T00:49:08;2.17;;;1.30;;
76403;SDS011;65232;48.358;2.122;2022-12-29T00:49:54;4.32;;;1.10;;
76403;SDS011;65232;48.358;2.122;2022-12-29T00:50:20;2.80;;;1.10;;
76403;SDS011;65232;48.358;2.122;2022-12-29T00:50:46;3.03;;;1.20;;
76403;SDS011;65232;48.358;2.122;2022-12-29T00:51:11;4.47;;;1.10;;
76403;SDS011;65232;48.358;2.122;2022-12-29T00:51:37;3.35;;;1.20;;
76403;SDS011;65232;48.358;2.122;2022-12-29T00:52:03;4.80;;;1.58;;
76403;SDS011;65232;48.358;2.122;2022-12-29T00:52:29;2.22;;;1.08;;
76403;SDS011;65232;48.358;2.122;2022-12-29T00:52:55;5.95;;;1.60;;
76403;SDS011;65232;48.358;2.122;2022-12-29T00:53:20;4.35;;;1.30;;
76403;SDS011;65232;48.358;2.122;2022-12-29T00:53:46;3.83;;;1.30;;
76403;SDS011;65232;48.358;2.122;2022-12-29T00:54:11;3.22;;;1.20;;
76403;SDS011;65232;48.358;2.122;2022-12-29T00:55:04;5.70;;;1.23;;
76403;SDS011;65232;48.358;2.122;2022-12-29T00:55:30;6.03;;;1.70;;
76403;SDS011;65232;48.358;2.122;2022-12-29T00:55:55;2.50;;;1.20;;
76403;SDS011;65232;48.358;2.122;2022-12-29T00:56:21;5.07;;;1.45;;
76403;SDS011;65232;48.358;2.122;2022-12-29T00:56:47;4.05;;;1.50;;
76403;SDS011;65232;48.358;2.122;2022-12-29T00:57:16;6.22;;;1.23;;
76403;SDS011;65232;48.358;2.122;2022-12-29T00:57:41;3.42;;;1.25;;
76403;SDS011;65232;48.358;2.122;2022-12-29T00:58:07;5.65;;;1.40;;
76403;SDS011;65232;48.358;2.122;2022-12-29T00:58:32;3.25;;;1.10;;
76403;SDS011;65232;48.358;2.122;2022-12-29T00:59:01;4.25;;;1.15;;
76403;SDS011;65232;48.358;2.122;2022-12-29T00:59:28;1.88;;;1.20;;
76403;SDS011;65232;48.358;2.122;2022-12-29T00:59:55;8.05;;;1.60;;
76403;SDS011;65232;48.358;2.122;2022-12-29T01:00:21;3.45;;;1.05;;
76403;SDS011;65232;48.358;2.122;2022-12-29T01:00:46;3.97;;;1.50;;
76403;SDS011;65232;48.358;2.122;2022-12-29T01:01:12;2.22;;;0.90;;
76403;SDS011;65232;48.358;2.122;2022-12-29T01:01:38;3.30;;;1.40;;
76403;SDS011;65232;48.358;2.122;2022-12-29T01:02:30;5.95;;;1.50;;
76403;SDS011;65232;48.358;2.122;2022-12-29T01:02:55;3.65;;;1.30;;
76403;SDS011;65232;48.358;2.122;2022-12-29T01:03:20;4.28;;;1.20;;
76403;SDS011;65232;48.358;2.122;2022-12-29T01:03:46;4.93;;;1.30;;
76403;SDS011;65232;48.358;2.122;2022-12-29T01:04:11;2.28;;;1.00;;
76403;SDS011;65232;48.358;2.122;2022-12-29T01:04:38;5.45;;;1.25;;
76403;SDS011;65232;48.358;2.122;2022-12-29T01:05:03;3.08;;;1.10;;
76403;SDS011;65232;48.358;2.122;2022-12-29T01:05:29;3.80;;;1.25;;
76403;SDS011;65232;48.358;2.122;2022-12-29T01:05:54;3.88;;;1.00;;
76403;SDS011;65232;48.358;2.122;2022-12-29T01:06:20;4.00;;;1.02;;
76403;SDS011;65232;48.358;2.122;2022-12-29T01:06:46;4.05;;;1.58;;
76403;SDS011;65232;48.358;2.122;2022-12-29T01:07:14;3.10;;;1.17;;
76403;SDS011;65232;48.358;2.122;2022-12-29T01:07:39;3.85;;;1.27;;
76403;SDS011;65232;48.358;2.122;2022-12-29T01:08:05;3.53;;;1.23;;
76403;SDS011;65232;48.358;2.122;2022-12-29T01:08:30;3.03;;;1.00;;
76403;SDS011;65232;48.358;2.122;2022-12-29T01:08:56;3.42;;;1.15;;
76403;SDS011;65232;48.358;2.122;2022-12-29T01:09:40;2.83;;;1.20;;
76403;SDS011;65232;48.358;2.122;2022-12-29T01:10:24;1.30;;;0.93;;
76403;SDS011;65232;48.358;2.122;2022-12-29T01:11:46;5.25;;;1.20;;
76403;SDS011;65232;48.358;2.122;2022-12-29T01:12:11;3.15;;;1.10;;
76403;SDS011;65232;48.358;2.122;2022-12-29T01:12:37;4.78;;;1.02;;
76403;SDS011;65232;48.358;2.122;2022-12-29T01:13:07;3.22;;;1.30;;
76403;SDS011;65232;48.358;2.122;2022-12-29T01:13:33;4.82;;;1.15;;
76403;SDS011;65232;48.358;2.122;2022-12-29T01:13:59;5.03;;;1.25;;
76403;SDS011;65232;48.358;2.122;2022-12-29T01:14:25;4.38;;;1.30;;
76403;SDS011;65232;48.358;2.122;2022-12-29T01:14:50;5.55;;;0.80;;
76403;SDS011;65232;48.358;2.122;2022-12-29T01:15:16;4.07;;;1.20;;
76403;SDS011;65232;48.358;2.122;2022-12-29T01:15:42;3.42;;;1.27;;
76403;SDS011;65232;48.358;2.122;2022-12-29T01:16:15;3.30;;;1.17;;
76403;SDS011;65232;48.358;2.122;2022-12-29T01:16:41;4.50;;;1.20;;
76403;SDS011;65232;48.358;2.122;2022-12-29T01:17:07;2.83;;;1.08;;
76403;SDS011;65232;48.358;2.122;2022-12-29T01:17:32;3.83;;;1.60;;
76403;SDS011;65232;48.358;2.122;2022-12-29T01:17:57;5.22;;;1.17;;
76403;SDS011;65232;48.358;2.122;2022-12-29T01:18:23;3.40;;;1.17;;
76403;SDS011;65232;48.358;2.122;2022-12-29T01:18:50;2.88;;;1.00;;
76403;SDS011;65232;48.358;2.122;2022-12-29T01:19:16;3.08;;;1.10;;
76403;SDS011;65232;48.358;2.122;2022-12-29T01:19:42;5.80;;;1.23;;
76403;SDS011;65232;48.358;2.122;2022-12-29T01:20:08;5.10;;;1.67;;
76403;SDS011;65232;48.358;2.122;2022-12-29T01:20:34;3.30;;;1.10;;
76403;SDS011;65232;48.358;2.122;2022-12-29T01:21:00;4.00;;;1.58;;
76403;SDS011;65232;48.358;2.122;2022-12-29T01:21:27;5.85;;;2.10;;
76403;SDS011;65232;48.358;2.122;2022-12-29T01:21:52;2.80;;;1.05;;
76403;SDS011;65232;48.358;2.122;2022-12-29T01:22:18;4.20;;;0.95;;
76403;SDS011;65232;48.358;2.122;2022-12-29T01:22:43;3.28;;;1.25;;
76403;SDS011;65232;48.358;2.122;2022-12-29T01:23:09;7.25;;;1.20;;
76403;SDS011;65232;48.358;2.122;2022-12-29T01:23:34;2.95;;;1.15;;
76403;SDS011;65232;48.358;2.122;2022-12-29T01:24:00;2.83;;;0.90;;
76403;SDS011;65232;48.358;2.122;2022-12-29T01:24:25;5.93;;;1.30;;
76403;SDS011;65232;48.358;2.122;2022-12-29T01:24:51;3.50;;;1.30;;
76403;SDS011;65232;48.358;2.122;2022-12-29T01:25:16;2.40;;;1.15;;
76403;SDS011;65232;48.358;2.122;2022-12-29T01:25:42;2.15;;;1.10;;
76403;SDS011;65232;48.358;2.122;2022-12-29T01:26:11;3.42;;;1.35;;
76403;SDS011;65232;48.358;2.122;2022-12-29T01:26:38;3.83;;;1.05;;
76403;SDS011;65232;48.358;2.122;2022-12-29T01:27:03;2.95;;;0.93;;
76403;SDS011;65232;48.358;2.122;2022-12-29T01:27:29;2.53;;;1.10;;
76403;SDS011;65232;48.358;2.122;2022-12-29T01:27:54;5.10;;;1.20;;
76403;SDS011;65232;48.358;2.122;2022-12-29T01:28:19;3.85;;;1.00;;
76403;SDS011;65232;48.358;2.122;2022-12-29T01:28:45;5.35;;;1.40;;
76403;SDS011;65232;48.358;2.122;2022-12-29T01:29:11;3.30;;;1.08;;
76403;SDS011;65232;48.358;2.122;2022-12-29T01:29:37;3.90;;;1.27;;
76403;SDS011;65232;48.358;2.122;2022-12-29T01:30:04;3.80;;;1.10;;
76403;SDS011;65232;48.358;2.122;2022-12-29T01:30:30;3.47;;;1.20;;
76403;SDS011;65232;48.358;2.122;2022-12-29T01:31:00;3.33;;;1.20;;
76403;SDS011;65232;48.358;2.122;2022-12-29T01:31:26;5.72;;;1.45;;
76403;SDS011;65232;48.358;2.122;2022-12-29T01:31:52;2.67;;;1.00;;
76403;SDS011;65232;48.358;2.122;2022-12-29T01:32:18;3.60;;;1.27;;
76403;SDS011;65232;48.358;2.122;2022-12-29T01:32:43;3.25;;;1.38;;
76403;SDS011;65232;48.358;2.122;2022-12-29T01:33:09;2.30;;;1.00;;
76403;SDS011;65232;48.358;2.122;2022-12-29T01:33:34;5.75;;;1.20;;
76403;SDS011;65232;48.358;2.122;2022-12-29T01:34:00;2.97;;;1.00;;
76403;SDS011;65232;48.358;2.122;2022-12-29T01:34:26;3.60;;;1.02;;
76403;SDS011;65232;48.358;2.122;2022-12-29T01:34:51;3.70;;;1.13;;
76403;SDS011;65232;48.358;2.122;2022-12-29T01:35:17;3.33;;;1.23;;
76403;SDS011;65232;48.358;2.122;2022-12-29T01:35:42;3.50;;;1.00;;
76403;SDS011;65232;48.358;2.122;2022-12-29T01:36:09;2.58;;;1.05;;
76403;SDS011;65232;48.358;2.122;2022-12-29T01:36:36;2.47;;;1.27;;
76403;SDS011;65232;48.358;2.122;2022-12-29T01:37:02;2.45;;;1.20;;
76403;SDS011;65232;48.358;2.122;2022-12-29T01:37:27;3.03;;;1.00;;
76403;SDS011;65232;48.358;2.122;2022-12-29T01:37:53;2.33;;;0.90;;
76403;SDS011;65232;48.358;2.122;2022-12-29T01:38:19;4.28;;;1.05;;
76403;SDS011;65232;48.358;2.122;2022-12-29T01:38:44;4.53;;;1.33;;
76403;SDS011;65232;48.358;2.122;2022-12-29T01:39:10;2.20;;;1.05;;
76403;SDS011;65232;48.358;2.122;2022-12-29T01:39:35;4.40;;;1.00;;
76403;SDS011;65232;48.358;2.122;2022-12-29T01:40:01;2.08;;;1.15;;
76403;SDS011;65232;48.358;2.122;2022-12-29T01:40:27;4.43;;;1.02;;
76403;SDS011;65232;48.358;2.122;2022-12-29T01:40:53;3.42;;;1.30;;
76403;SDS011;65232;48.358;2.122;2022-12-29T01:41:19;2.78;;;1.05;;
76403;SDS011;65232;48.358;2.122;2022-12-29T01:41:44;1.95;;;1.00;;
76403;SDS011;65232;48.358;2.122;2022-12-29T01:42:14;3.45;;;1.02;;
76403;SDS011;65232;48.358;2.122;2022-12-29T01:42:42;2.50;;;0.95;;
76403;SDS011;65232;48.358;2.122;2022-12-29T01:43:08;2.53;;;0.90;;
76403;SDS011;65232;48.358;2.122;2022-12-29T01:43:45;5.32;;;1.23;;
76403;SDS011;65232;48.358;2.122;2022-12-29T01:45:16;3.13;;;0.90;;
76403;SDS011;65232;48.358;2.122;2022-12-29T01:45:44;4.57;;;0.80;;
76403;SDS011;65232;48.358;2.122;2022-12-29T01:47:02;2.78;;;0.98;;
76403;SDS011;65232;48.358;2.122;2022-12-29T01:47:30;2.67;;;1.05;;
76403;SDS011;65232;48.358;2.122;2022-12-29T01:48:01;5.22;;;1.10;;
76403;SDS011;65232;48.358;2.122;2022-12-29T01:48:30;4.90;;;0.88;;
76403;SDS011;65232;48.358;2.122;2022-12-29T01:49:38;3.75;;;0.90;;
76403;SDS011;65232;48.358;2.122;2022-12-29T01:50:06;4.55;;;0.98;;
76403;SDS011;65232;48.358;2.122;2022-12-29T01:50:58;2.95;;;0.70;;
76403;SDS011;65232;48.358;2.122;2022-12-29T01:51:24;4.43;;;1.10;;
76403;SDS011;65232;48.358;2.122;2022-12-29T01:51:52;2.05;;;0.80;;
76403;SDS011;65232;48.358;2.122;2022-12-29T01:52:20;3.65;;;0.93;;
76403;SDS011;65232;48.358;2.122;2022-12-29T01:52:51;3.97;;;0.90;;
76403;SDS011;65232;48.358;2.122;2022-12-29T01:53:27;4.90;;;1.00;;
76403;SDS011;65232;48.358;2.122;2022-12-29T01:53:57;3.42;;;0.90;;
76403;SDS011;65232;48.358;2.122;2022-12-29T01:54:27;2.28;;;0.80;;
76403;SDS011;65232;48.358;2.122;2022-12-29T01:54:54;2.03;;;0.90;;
76403;SDS011;65232;48.358;2.122;2022-12-29T01:55:22;3.35;;;0.93;;
76403;SDS011;65232;48.358;2.122;2022-12-29T01:55:50;6.07;;;1.05;;
76403;SDS011;65232;48.358;2.122;2022-12-29T01:56:20;3.72;;;0.90;;
76403;SDS011;65232;48.358;2.122;2022-12-29T01:57:24;2.83;;;0.80;;
76403;SDS011;65232;48.358;2.122;2022-12-29T01:57:53;3.22;;;0.82;;
76403;SDS011;65232;48.358;2.122;2022-12-29T01:58:24;1.52;;;0.68;;
76403;SDS011;65232;48.358;2.122;2022-12-29T01:58:55;3.72;;;1.10;;
76403;SDS011;65232;48.358;2.122;2022-12-29T01:59:30;4.00;;;1.20;;
76403;SDS011;65232;48.358;2.122;2022-12-29T02:00:00;4.35;;;1.40;;
76403;SDS011;65232;48.358;2.122;2022-12-29T02:00:37;3.20;;;0.80;;
76403;SDS011;65232;48.358;2.122;2022-12-29T02:01:03;3.30;;;0.80;;
76403;SDS011;65232;48.358;2.122;2022-12-29T02:01:29;3.88;;;1.00;;
76403;SDS011;65232;48.358;2.122;2022-12-29T02:01:55;4.85;;;0.93;;
76403;SDS011;65232;48.358;2.122;2022-12-29T02:02:20;3.20;;;0.82;;
76403;SDS011;65232;48.358;2.122;2022-12-29T02:02:52;4.50;;;1.05;;
76403;SDS011;65232;48.358;2.122;2022-12-29T02:03:18;4.03;;;1.15;;
76403;SDS011;65232;48.358;2.122;2022-12-29T02:03:45;2.95;;;0.68;;
76403;SDS011;65232;48.358;2.122;2022-12-29T02:04:12;2.85;;;1.05;;
76403;SDS011;65232;48.358;2.122;2022-12-29T02:04:39;3.50;;;0.90;;
76403;SDS011;65232;48.358;2.122;2022-12-29T02:05:30;3.22;;;0.80;;
76403;SDS011;65232;48.358;2.122;2022-12-29T02:06:02;2.92;;;0.70;;
76403;SDS011;65232;48.358;2.122;2022-12-29T02:06:46;3.42;;;1.00;;
76403;SDS011;65232;48.358;2.122;2022-12-29T02:07:18;1.58;;;0.70;;
76403;SDS011;65232;48.358;2.122;2022-12-29T02:07:46;4.72;;;1.10;;
76403;SDS011;65232;48.358;2.122;2022-12-29T02:08:12;1.50;;;0.70;;
76403;SDS011;65232;48.358;2.122;2022-12-29T02:08:38;1.77;;;0.70;;
76403;SDS011;65232;48.358;2.122;2022-12-29T02:09:05;2.92;;;1.00;;
76403;SDS011;65232;48.358;2.122;2022-12-29T02:09:31;4.20;;;0.80;;
76403;SDS011;65232;48.358;2.122;2022-12-29T02:09:56;4.10;;;0.90;;
76403;SDS011;65232;48.358;2.122;2022-12-29T02:10:24;1.83;;;0.80;;
76403;SDS011;65232;48.358;2.122;2022-12-29T02:10:52;1.80;;;0.90;;
76403;SDS011;65232;48.358;2.122;2022-12-29T02:11:21;2.88;;;0.82;;
76403;SDS011;65232;48.358;2.122;2022-12-29T02:11:48;4.07;;;0.90;;
76403;SDS011;65232;48.358;2.122;2022-12-29T02:12:17;2.90;;;0.90;;
76403;SDS011;65232;48.358;2.122;2022-12-29T02:12:45;3.40;;;1.00;;
76403;SDS011;65232;48.358;2.122;2022-12-29T02:13:11;2.88;;;0.88;;
76403;SDS011;65232;48.358;2.122;2022-12-29T02:13:39;1.73;;;0.70;;
76403;SDS011;65232;48.358;2.122;2022-12-29T02:14:09;3.15;;;0.90;;
76403;SDS011;65232;48.358;2.122;2022-12-29T02:14:35;3.33;;;1.00;;
76403;SDS011;65232;48.358;2.122;2022-12-29T02:15:02;3.63;;;0.90;;
76403;SDS011;65232;48.358;2.122;2022-12-29T02:18:22;1.98;;;0.65;;
76403;SDS011;65232;48.358;2.122;2022-12-29T02:31:58;1.90;;;0.50;;
76403;SDS011;65232;48.358;2.122;2022-12-29T02:33:20;0.65;;;0.35;;
76403;SDS011;65232;48.358;2.122;2022-12-29T02:35:45;1.00;;;0.45;;
76403;SDS011;65232;48.358;2.122;2022-12-29T02:36:32;0.70;;;0.43;;
76403;SDS011;65232;48.358;2.122;2022-12-29T02:38:02;0.50;;;0.30;;
76403;SDS011;65232;48.358;2.122;2022-12-29T02:38:54;0.65;;;0.30;;
76403;SDS011;65232;48.358;2.122;2022-12-29T02:39:39;1.70;;;0.50;;
76403;SDS011;65232;48.358;2.122;2022-12-29T02:45:01;2.22;;;0.22;;
76403;SDS011;65232;48.358;2.122;2022-12-29T02:47:11;0.68;;;0.10;;
76403;SDS011;65232;48.358;2.122;2022-12-29T02:48:18;2.60;;;0.60;;
76403;SDS011;65232;48.358;2.122;2022-12-29T02:49:01;2.15;;;0.28;;
76403;SDS011;65232;48.358;2.122;2022-12-29T02:49:42;0.30;;;0.17;;
76403;SDS011;65232;48.358;2.122;2022-12-29T02:51:40;0.88;;;0.20;;
76403;SDS011;65232;48.358;2.122;2022-12-29T02:52:26;1.52;;;0.30;;
76403;SDS011;65232;48.358;2.122;2022-12-29T02:52:58;1.45;;;0.35;;
76403;SDS011;65232;48.358;2.122;2022-12-29T02:53:26;0.85;;;0.40;;
76403;SDS011;65232;48.358;2.122;2022-12-29T02:54:12;1.02;;;0.30;;
76403;SDS011;65232;48.358;2.122;2022-12-29T02:54:57;1.23;;;0.20;;
76403;SDS011;65232;48.358;2.122;2022-12-29T02:55:24;2.38;;;0.60;;
76403;SDS011;65232;48.358;2.122;2022-12-29T02:55:49;1.38;;;0.15;;
76403;SDS011;65232;48.358;2.122;2022-12-29T02:56:16;0.70;;;0.30;;
76403;SDS011;65232;48.358;2.122;2022-12-29T02:56:42;1.45;;;0.20;;
76403;SDS011;65232;48.358;2.122;2022-12-29T02:57:14;0.98;;;0.35;;
76403;SDS011;65232;48.358;2.122;2022-12-29T02:57:46;0.50;;;0.30;;
76403;SDS011;65232;48.358;2.122;2022-12-29T02:58:19;1.65;;;0.30;;
76403;SDS011;65232;48.358;2.122;2022-12-29T02:58:48;2.20;;;0.50;;
76403;SDS011;65232;48.358;2.122;2022-12-29T02:59:15;0.70;;;0.30;;
76403;SDS011;65232;48.358;2.122;2022-12-29T02:59:42;1.83;;;0.30;;
76403;SDS011;65232;48.358;2.122;2022-12-29T03:00:13;4.07;;;0.60;;
76403;SDS011;65232;48.358;2.122;2022-12-29T03:00:48;0.70;;;0.28;;
76403;SDS011;65232;48.358;2.122;2022-12-29T03:05:42;1.58;;;0.22;;
76403;SDS011;65232;48.358;2.122;2022-12-29T03:06:16;1.27;;;0.28;;
76403;SDS011;65232;48.358;2.122;2022-12-29T03:07:57;0.98;;;0.15;;
76403;SDS011;65232;48.358;2.122;2022-12-29T03:10:59;1.95;;;0.40;;
76403;SDS011;65232;48.358;2.122;2022-12-29T03:11:33;1.67;;;0.30;;
76403;SDS011;65232;48.358;2.122;2022-12-29T03:14:27;0.75;;;0.20;;
76403;SDS011;65232;48.358;2.122;2022-12-29T03:17:19;0.52;;;0.15;;
76403;SDS011;65232;48.358;2.122;2022-12-29T03:17:56;1.27;;;0.30;;
76403;SDS011;65232;48.358;2.122;2022-12-29T03:18:29;0.57;;;0.22;;
76403;SDS011;65232;48.358;2.122;2022-12-29T03:20:21;1.15;;;0.25;;
76403;SDS011;65232;48.358;2.122;2022-12-29T03:20:54;0.22;;;0.10;;
76403;SDS011;65232;48.358;2.122;2022-12-29T03:21:38;1.23;;;0.20;;
76403;SDS011;65232;48.358;2.122;2022-12-29T03:22:29;0.32;;;0.10;;
76403;SDS011;65232;48.358;2.122;2022-12-29T03:23:07;1.98;;;0.25;;
76403;SDS011;65232;48.358;2.122;2022-12-29T03:23:34;1.73;;;0.30;;
76403;SDS011;65232;48.358;2.122;2022-12-29T03:24:02;0.60;;;0.20;;
76403;SDS011;65232;48.358;2.122;2022-12-29T03:24:29;1.35;;;0.30;;
76403;SDS011;65232;48.358;2.122;2022-12-29T03:25:30;0.75;;;0.15;;
76403;SDS011;65232;48.358;2.122;2022-12-29T03:26:01;1.40;;;0.30;;
76403;SDS011;65232;48.358;2.122;2022-12-29T03:26:32;1.48;;;0.35;;
76403;SDS011;65232;48.358;2.122;2022-12-29T03:27:00;2.20;;;0.20;;
76403;SDS011;65232;48.358;2.122;2022-12-29T03:27:36;1.52;;;0.30;;
76403;SDS011;65232;48.358;2.122;2022-12-29T03:28:07;1.00;;;0.38;;
76403;SDS011;65232;48.358;2.122;2022-12-29T03:28:46;1.70;;;0.50;;
76403;SDS011;65232;48.358;2.122;2022-12-29T03:29:19;1.40;;;0.40;;
76403;SDS011;65232;48.358;2.122;2022-12-29T03:29:48;0.90;;;0.30;;
76403;SDS011;65232;48.358;2.122;2022-12-29T03:30:19;1.58;;;0.20;;
76403;SDS011;65232;48.358;2.122;2022-12-29T03:30:46;0.82;;;0.30;;
76403;SDS011;65232;48.358;2.122;2022-12-29T03:31:13;0.50;;;0.30;;
76403;SDS011;65232;48.358;2.122;2022-12-29T03:31:41;5.47;;;0.55;;
76403;SDS011;65232;48.358;2.122;2022-12-29T03:32:08;2.10;;;0.88;;
76403;SDS011;65232;48.358;2.122;2022-12-29T03:32:47;1.55;;;0.40;;
76403;SDS011;65232;48.358;2.122;2022-12-29T03:33:18;2.58;;;0.60;;
76403;SDS011;65232;48.358;2.122;2022-12-29T03:33:48;2.60;;;0.45;;
76403;SDS011;65232;48.358;2.122;2022-12-29T03:34:15;1.08;;;0.40;;
76403;SDS011;65232;48.358;2.122;2022-12-29T03:34:44;1.98;;;0.38;;
76403;SDS011;65232;48.358;2.122;2022-12-29T03:35:37;2.47;;;0.52;;
76403;SDS011;65232;48.358;2.122;2022-12-29T03:36:12;1.50;;;0.57;;
76403;SDS011;65232;48.358;2.122;2022-12-29T03:36:55;1.67;;;0.40;;
76403;SDS011;65232;48.358;2.122;2022-12-29T03:37:28;4.28;;;0.60;;
76403;SDS011;65232;48.358;2.122;2022-12-29T03:38:50;2.35;;;0.32;;
76403;SDS011;65232;48.358;2.122;2022-12-29T03:39:23;2.63;;;0.40;;
76403;SDS011;65232;48.358;2.122;2022-12-29T03:39:50;1.83;;;0.30;;
76403;SDS011;65232;48.358;2.122;2022-12-29T03:40:16;2.83;;;0.43;;
76403;SDS011;65232;48.358;2.122;2022-12-29T03:40:43;1.73;;;0.50;;
76403;SDS011;65232;48.358;2.122;2022-12-29T03:41:14;2.33;;;0.30;;
76403;SDS011;65232;48.358;2.122;2022-12-29T03:41:45;2.92;;;0.32;;
76403;SDS011;65232;48.358;2.122;2022-12-29T03:42:15;2.03;;;0.50;;
76403;SDS011;65232;48.358;2.122;2022-12-29T03:42:44;3.03;;;0.40;;
76403;SDS011;65232;48.358;2.122;2022-12-29T03:43:10;1.45;;;0.30;;
76403;SDS011;65232;48.358;2.122;2022-12-29T03:43:37;1.95;;;0.50;;
76403;SDS011;65232;48.358;2.122;2022-12-29T03:44:05;3.30;;;0.50;;
76403;SDS011;65232;48.358;2.122;2022-12-29T03:44:36;2.47;;;0.52;;
76403;SDS011;65232;48.358;2.122;2022-12-29T03:45:04;2.72;;;0.55;;
76403;SDS011;65232;48.358;2.122;2022-12-29T03:45:31;2.85;;;0.60;;
76403;SDS011;65232;48.358;2.122;2022-12-29T03:45:57;3.53;;;0.40;;
76403;SDS011;65232;48.358;2.122;2022-12-29T03:46:23;1.52;;;0.40;;
76403;SDS011;65232;48.358;2.122;2022-12-29T03:46:48;2.80;;;0.70;;
76403;SDS011;65232;48.358;2.122;2022-12-29T03:47:15;2.15;;;0.35;;
76403;SDS011;65232;48.358;2.122;2022-12-29T03:47:43;1.98;;;0.50;;
76403;SDS011;65232;48.358;2.122;2022-12-29T03:48:10;3.97;;;0.50;;
76403;SDS011;65232;48.358;2.122;2022-12-29T03:48:38;2.40;;;0.60;;
76403;SDS011;65232;48.358;2.122;2022-12-29T03:49:03;2.45;;;0.38;;
76403;SDS011;65232;48.358;2.122;2022-12-29T03:49:29;3.08;;;0.52;;
76403;SDS011;65232;48.358;2.122;2022-12-29T03:49:55;2.28;;;0.60;;
76403;SDS011;65232;48.358;2.122;2022-12-29T03:50:20;1.27;;;0.40;;
76403;SDS011;65232;48.358;2.122;2022-12-29T03:50:46;1.33;;;0.40;;
76403;SDS011;65232;48.358;2.122;2022-12-29T03:51:12;2.00;;;0.50;;
76403;SDS011;65232;48.358;2.122;2022-12-29T03:51:37;2.40;;;0.40;;
76403;SDS011;65232;48.358;2.122;2022-12-29T03:52:04;3.85;;;0.52;;
76403;SDS011;65232;48.358;2.122;2022-12-29T03:52:34;2.35;;;0.40;;